Agate Beach, Washington
Current Conditions -  °F | °C
As of 8:53 PM on Friday 21 Nov 2014 (Local Time) from KCLM Reporting Station
Light Rain Light Rain  
Wind Chill:   Ceiling: 6000
Heat Index:   Visibility: 10mi
Dew Point:   Wind: 21mph
Humidity: 71%   Direction: 250°WSW
Pressure: 29.37"   Gusts: 32mph
Location:  48.1359°N, 123.734°W
Report Text: KCLM 220453Z AUTO 25018G28KT 10SM -RA BKN060 BKN075 09/04 A2937 RMK AO2 PK WND 28028/0407 RAB05 SLP944 P0000 T00940044 $
Loading
Personal Weather Stations






























Interactive Weather Map New forecast layout! Learn more

10-Day Weather Forecast

Advertisements
Track Severe Weather on mobile